sensor_id;sensor_type;location;lat;lon;timestamp;pressure;altitude;pressure_sealevel;temperature;humidity
33506;BME280;19843;51.040;13.782;2023-06-04T00:02:26;100779.59;;;10.81;65.08
33506;BME280;19843;51.040;13.782;2023-06-04T00:04:53;100793.22;;;10.83;65.53
33506;BME280;19843;51.040;13.782;2023-06-04T00:07:21;100785.16;;;10.81;65.20
33506;BME280;19843;51.040;13.782;2023-06-04T00:09:48;100790.50;;;10.39;67.09
33506;BME280;19843;51.040;13.782;2023-06-04T00:12:16;100784.56;;;10.58;66.64
33506;BME280;19843;51.040;13.782;2023-06-04T00:14:44;100793.63;;;10.55;66.60
33506;BME280;19843;51.040;13.782;2023-06-04T00:17:12;100782.75;;;10.71;64.89
33506;BME280;19843;51.040;13.782;2023-06-04T00:19:41;100781.09;;;10.79;64.43
33506;BME280;19843;51.040;13.782;2023-06-04T00:22:08;100781.59;;;10.63;64.76
33506;BME280;19843;51.040;13.782;2023-06-04T00:24:38;100780.13;;;10.57;64.82
33506;BME280;19843;51.040;13.782;2023-06-04T00:27:07;100781.66;;;10.37;66.00
33506;BME280;19843;51.040;13.782;2023-06-04T00:29:35;100780.50;;;10.38;66.14
33506;BME280;19843;51.040;13.782;2023-06-04T00:32:03;100780.84;;;10.37;66.26
33506;BME280;19843;51.040;13.782;2023-06-04T00:34:31;100779.03;;;10.41;66.29
33506;BME280;19843;51.040;13.782;2023-06-04T00:37:00;100784.09;;;10.30;66.80
33506;BME280;19843;51.040;13.782;2023-06-04T00:39:28;100775.25;;;10.37;66.74
33506;BME280;19843;51.040;13.782;2023-06-04T00:41:56;100761.78;;;10.39;66.70
33506;BME280;19843;51.040;13.782;2023-06-04T00:44:23;100760.31;;;10.24;66.79
33506;BME280;19843;51.040;13.782;2023-06-04T00:46:52;100761.31;;;10.02;67.77
33506;BME280;19843;51.040;13.782;2023-06-04T00:49:20;100768.34;;;9.99;67.89
33506;BME280;19843;51.040;13.782;2023-06-04T00:51:48;100769.84;;;9.97;67.92
33506;BME280;19843;51.040;13.782;2023-06-04T00:54:19;100766.22;;;10.05;67.76
33506;BME280;19843;51.040;13.782;2023-06-04T00:56:47;100766.84;;;10.11;68.00
33506;BME280;19843;51.040;13.782;2023-06-04T00:59:15;100761.47;;;9.97;67.92
33506;BME280;19843;51.040;13.782;2023-06-04T01:01:47;100764.91;;;10.03;67.74
33506;BME280;19843;51.040;13.782;2023-06-04T01:04:21;100768.16;;;9.87;68.16
33506;BME280;19843;51.040;13.782;2023-06-04T01:06:53;100762.47;;;9.92;67.86
33506;BME280;19843;51.040;13.782;2023-06-04T01:09:26;100766.69;;;9.90;68.16
33506;BME280;19843;51.040;13.782;2023-06-04T01:11:53;100768.00;;;9.66;69.02
33506;BME280;19843;51.040;13.782;2023-06-04T01:14:24;100773.69;;;9.53;69.88
33506;BME280;19843;51.040;13.782;2023-06-04T01:16:55;100765.38;;;9.61;69.28
33506;BME280;19843;51.040;13.782;2023-06-04T01:22:44;100763.19;;;9.41;70.58
33506;BME280;19843;51.040;13.782;2023-06-04T01:25:20;100756.47;;;9.42;70.00
33506;BME280;19843;51.040;13.782;2023-06-04T01:27:52;100764.88;;;9.11;70.80
33506;BME280;19843;51.040;13.782;2023-06-04T01:30:24;100761.13;;;9.15;70.93
33506;BME280;19843;51.040;13.782;2023-06-04T01:32:52;100759.75;;;9.35;69.94
33506;BME280;19843;51.040;13.782;2023-06-04T01:35:21;100766.09;;;9.27;70.45
33506;BME280;19843;51.040;13.782;2023-06-04T01:37:52;100765.31;;;9.35;70.33
33506;BME280;19843;51.040;13.782;2023-06-04T01:40:22;100764.66;;;9.38;69.98
33506;BME280;19843;51.040;13.782;2023-06-04T01:42:51;100766.91;;;9.19;70.92
33506;BME280;19843;51.040;13.782;2023-06-04T01:45:20;100762.69;;;8.90;71.93
33506;BME280;19843;51.040;13.782;2023-06-04T01:47:48;100771.97;;;9.17;71.17
33506;BME280;19843;51.040;13.782;2023-06-04T01:50:16;100765.69;;;9.03;71.73
33506;BME280;19843;51.040;13.782;2023-06-04T01:52:43;100771.97;;;9.26;71.37
33506;BME280;19843;51.040;13.782;2023-06-04T01:55:14;100761.50;;;9.22;71.73
33506;BME280;19843;51.040;13.782;2023-06-04T01:57:44;100761.97;;;9.16;71.85
33506;BME280;19843;51.040;13.782;2023-06-04T02:00:13;100767.91;;;9.23;71.41
33506;BME280;19843;51.040;13.782;2023-06-04T02:02:42;100767.72;;;9.19;71.20
33506;BME280;19843;51.040;13.782;2023-06-04T02:05:10;100761.31;;;9.19;71.04
33506;BME280;19843;51.040;13.782;2023-06-04T02:07:39;100771.09;;;8.99;71.98
33506;BME280;19843;51.040;13.782;2023-06-04T02:10:09;100765.31;;;8.95;72.62
33506;BME280;19843;51.040;13.782;2023-06-04T02:12:38;100763.34;;;8.96;72.50
33506;BME280;19843;51.040;13.782;2023-06-04T02:15:11;100773.06;;;8.98;72.01
33506;BME280;19843;51.040;13.782;2023-06-04T02:17:38;100767.00;;;9.05;72.09
33506;BME280;19843;51.040;13.782;2023-06-04T02:20:07;100763.88;;;8.67;74.02
33506;BME280;19843;51.040;13.782;2023-06-04T02:22:36;100776.88;;;8.80;73.61
33506;BME280;19843;51.040;13.782;2023-06-04T02:25:04;100769.72;;;8.88;73.23
33506;BME280;19843;51.040;13.782;2023-06-04T02:27:35;100771.19;;;8.85;72.99
33506;BME280;19843;51.040;13.782;2023-06-04T02:30:03;100775.53;;;8.69;73.86
33506;BME280;19843;51.040;13.782;2023-06-04T02:32:33;100772.91;;;8.72;73.49
33506;BME280;19843;51.040;13.782;2023-06-04T02:35:03;100773.84;;;8.59;74.86
33506;BME280;19843;51.040;13.782;2023-06-04T02:37:30;100774.72;;;8.46;75.62
33506;BME280;19843;51.040;13.782;2023-06-04T02:39:58;100769.72;;;8.57;75.22
33506;BME280;19843;51.040;13.782;2023-06-04T02:42:25;100782.88;;;8.65;74.59
33506;BME280;19843;51.040;13.782;2023-06-04T02:44:53;100780.91;;;8.65;74.94
33506;BME280;19843;51.040;13.782;2023-06-04T02:47:20;100770.41;;;8.62;74.57
33506;BME280;19843;51.040;13.782;2023-06-04T02:49:49;100781.94;;;8.47;74.93
33506;BME280;19843;51.040;13.782;2023-06-04T02:52:16;100779.97;;;8.48;75.57
33506;BME280;19843;51.040;13.782;2023-06-04T02:54:44;100788.94;;;8.44;75.06
33506;BME280;19843;51.040;13.782;2023-06-04T02:57:11;100785.56;;;8.34;76.00
33506;BME280;19843;51.040;13.782;2023-06-04T02:59:39;100779.88;;;8.16;76.64
33506;BME280;19843;51.040;13.782;2023-06-04T03:02:06;100775.97;;;8.40;75.63
33506;BME280;19843;51.040;13.782;2023-06-04T03:04:35;100780.84;;;8.57;74.58
33506;BME280;19843;51.040;13.782;2023-06-04T03:07:04;100784.78;;;8.56;74.62
33506;BME280;19843;51.040;13.782;2023-06-04T03:09:32;100789.19;;;8.57;74.10
33506;BME280;19843;51.040;13.782;2023-06-04T03:12:00;100785.44;;;8.16;75.92
33506;BME280;19843;51.040;13.782;2023-06-04T03:14:28;100783.13;;;8.55;74.40
33506;BME280;19843;51.040;13.782;2023-06-04T03:16:59;100790.91;;;8.66;73.80
33506;BME280;19843;51.040;13.782;2023-06-04T03:19:35;100788.78;;;8.72;73.31
33506;BME280;19843;51.040;13.782;2023-06-04T03:22:04;100790.53;;;8.59;74.14
33506;BME280;19843;51.040;13.782;2023-06-04T03:24:33;100789.53;;;8.55;73.90
33506;BME280;19843;51.040;13.782;2023-06-04T03:27:02;100799.31;;;8.53;74.20
33506;BME280;19843;51.040;13.782;2023-06-04T03:29:31;100796.47;;;8.66;74.00
33506;BME280;19843;51.040;13.782;2023-06-04T03:31:58;100794.00;;;8.65;74.51
33506;BME280;19843;51.040;13.782;2023-06-04T03:34:26;100803.03;;;8.70;73.84
33506;BME280;19843;51.040;13.782;2023-06-04T03:36:54;100804.25;;;8.87;73.33
33506;BME280;19843;51.040;13.782;2023-06-04T03:39:23;100805.47;;;8.94;72.50
33506;BME280;19843;51.040;13.782;2023-06-04T03:41:51;100802.16;;;8.92;72.87
33506;BME280;19843;51.040;13.782;2023-06-04T03:44:18;100800.84;;;8.90;73.00
33506;BME280;19843;51.040;13.782;2023-06-04T03:46:46;100799.09;;;8.71;74.21
33506;BME280;19843;51.040;13.782;2023-06-04T03:49:14;100803.53;;;8.72;73.96
33506;BME280;19843;51.040;13.782;2023-06-04T03:51:43;100813.50;;;8.65;74.24
33506;BME280;19843;51.040;13.782;2023-06-04T03:54:11;100812.47;;;8.38;75.88
33506;BME280;19843;51.040;13.782;2023-06-04T03:56:45;100811.88;;;8.72;73.91
33506;BME280;19843;51.040;13.782;2023-06-04T03:59:12;100813.72;;;8.32;75.43
33506;BME280;19843;51.040;13.782;2023-06-04T04:01:41;100817.38;;;8.19;76.67
33506;BME280;19843;51.040;13.782;2023-06-04T04:04:09;100815.78;;;8.40;75.16
33506;BME280;19843;51.040;13.782;2023-06-04T04:06:36;100812.31;;;8.21;76.22
33506;BME280;19843;51.040;13.782;2023-06-04T04:09:04;100816.31;;;8.29;75.61
33506;BME280;19843;51.040;13.782;2023-06-04T04:11:33;100813.44;;;8.56;74.31
33506;BME280;19843;51.040;13.782;2023-06-04T04:14:01;100809.63;;;10.93;65.74
33506;BME280;19843;51.040;13.782;2023-06-04T04:16:29;100816.78;;;10.21;66.02
33506;BME280;19843;51.040;13.782;2023-06-04T04:18:56;100819.28;;;11.72;62.11
33506;BME280;19843;51.040;13.782;2023-06-04T04:21:24;100803.91;;;12.95;56.70
33506;BME280;19843;51.040;13.782;2023-06-04T04:23:51;100804.34;;;12.39;57.04
33506;BME280;19843;51.040;13.782;2023-06-04T04:26:19;100811.25;;;12.21;58.09
33506;BME280;19843;51.040;13.782;2023-06-04T04:28:46;100807.63;;;11.70;59.20
33506;BME280;19843;51.040;13.782;2023-06-04T04:31:15;100803.84;;;12.37;57.11
33506;BME280;19843;51.040;13.782;2023-06-04T04:33:44;100811.16;;;11.88;58.85
33506;BME280;19843;51.040;13.782;2023-06-04T04:36:11;100801.47;;;12.27;57.61
33506;BME280;19843;51.040;13.782;2023-06-04T04:38:39;100813.81;;;11.54;58.99
33506;BME280;19843;51.040;13.782;2023-06-04T04:41:07;100813.00;;;12.46;56.93
33506;BME280;19843;51.040;13.782;2023-06-04T04:43:36;100813.94;;;12.50;55.82
33506;BME280;19843;51.040;13.782;2023-06-04T04:46:03;100815.69;;;14.23;51.65
33506;BME280;19843;51.040;13.782;2023-06-04T04:48:33;100803.00;;;14.97;48.96
33506;BME280;19843;51.040;13.782;2023-06-04T04:51:00;100800.19;;;15.13;48.16
33506;BME280;19843;51.040;13.782;2023-06-04T04:53:28;100809.34;;;15.57;46.94
33506;BME280;19843;51.040;13.782;2023-06-04T04:55:56;100813.97;;;16.75;44.41
33506;BME280;19843;51.040;13.782;2023-06-04T04:58:24;100811.00;;;16.09;45.30
33506;BME280;19843;51.040;13.782;2023-06-04T05:00:51;100810.22;;;14.82;47.26
33506;BME280;19843;51.040;13.782;2023-06-04T05:03:19;100810.72;;;15.00;46.91
33506;BME280;19843;51.040;13.782;2023-06-04T05:05:48;100812.38;;;13.19;52.49
33506;BME280;19843;51.040;13.782;2023-06-04T05:08:15;100815.38;;;12.56;54.97
33506;BME280;19843;51.040;13.782;2023-06-04T05:10:43;100817.25;;;12.98;54.21
33506;BME280;19843;51.040;13.782;2023-06-04T05:13:11;100814.31;;;12.94;55.00
33506;BME280;19843;51.040;13.782;2023-06-04T05:15:38;100814.53;;;13.35;53.17
33506;BME280;19843;51.040;13.782;2023-06-04T05:18:08;100816.97;;;13.61;52.85
33506;BME280;19843;51.040;13.782;2023-06-04T05:20:36;100811.94;;;13.66;52.26
33506;BME280;19843;51.040;13.782;2023-06-04T05:23:05;100806.81;;;15.68;48.16
33506;BME280;19843;51.040;13.782;2023-06-04T05:25:33;100813.16;;;14.58;49.97
33506;BME280;19843;51.040;13.782;2023-06-04T05:28:00;100819.44;;;13.25;52.82
33506;BME280;19843;51.040;13.782;2023-06-04T05:30:27;100819.72;;;13.12;52.65
33506;BME280;19843;51.040;13.782;2023-06-04T05:32:55;100816.06;;;13.44;53.12
33506;BME280;19843;51.040;13.782;2023-06-04T05:35:22;100825.25;;;13.94;52.01
33506;BME280;19843;51.040;13.782;2023-06-04T05:37:50;100823.41;;;13.49;52.77
33506;BME280;19843;51.040;13.782;2023-06-04T05:40:21;100828.41;;;13.43;52.48
33506;BME280;19843;51.040;13.782;2023-06-04T05:42:49;100836.34;;;13.90;51.38
33506;BME280;19843;51.040;13.782;2023-06-04T05:45:16;100831.31;;;14.76;49.37
33506;BME280;19843;51.040;13.782;2023-06-04T05:47:44;100829.88;;;14.14;49.74
33506;BME280;19843;51.040;13.782;2023-06-04T05:50:11;100829.31;;;14.08;51.36
33506;BME280;19843;51.040;13.782;2023-06-04T05:52:39;100824.03;;;14.59;49.43
33506;BME280;19843;51.040;13.782;2023-06-04T05:55:07;100828.66;;;14.40;49.24
33506;BME280;19843;51.040;13.782;2023-06-04T05:57:36;100824.22;;;14.67;48.44
33506;BME280;19843;51.040;13.782;2023-06-04T06:00:05;100827.97;;;14.71;48.65
33506;BME280;19843;51.040;13.782;2023-06-04T06:02:35;100833.59;;;15.46;46.56
33506;BME280;19843;51.040;13.782;2023-06-04T06:05:04;100833.09;;;14.41;48.72
33506;BME280;19843;51.040;13.782;2023-06-04T06:07:33;100824.63;;;15.25;47.80
33506;BME280;19843;51.040;13.782;2023-06-04T06:10:01;100823.50;;;15.14;47.09
33506;BME280;19843;51.040;13.782;2023-06-04T06:12:30;100837.09;;;14.27;48.46
33506;BME280;19843;51.040;13.782;2023-06-04T06:14:59;100822.69;;;15.13;47.22
33506;BME280;19843;51.040;13.782;2023-06-04T06:17:26;100827.00;;;14.95;45.90
33506;BME280;19843;51.040;13.782;2023-06-04T06:19:55;100829.59;;;15.63;44.84
33506;BME280;19843;51.040;13.782;2023-06-04T06:22:22;100833.25;;;16.15;44.38
33506;BME280;19843;51.040;13.782;2023-06-04T06:24:50;100843.16;;;14.42;48.68
33506;BME280;19843;51.040;13.782;2023-06-04T06:27:17;100837.88;;;14.52;48.36
33506;BME280;19843;51.040;13.782;2023-06-04T06:29:45;100837.34;;;14.91;47.25
33506;BME280;19843;51.040;13.782;2023-06-04T06:32:14;100838.69;;;15.72;47.28
33506;BME280;19843;51.040;13.782;2023-06-04T06:34:41;100838.28;;;15.42;45.48
33506;BME280;19843;51.040;13.782;2023-06-04T06:37:09;100839.59;;;14.85;46.98
33506;BME280;19843;51.040;13.782;2023-06-04T06:39:36;100852.38;;;14.42;47.03
33506;BME280;19843;51.040;13.782;2023-06-04T06:42:04;100844.25;;;14.65;45.48
33506;BME280;19843;51.040;13.782;2023-06-04T06:44:32;100849.47;;;15.86;44.74
33506;BME280;19843;51.040;13.782;2023-06-04T06:46:59;100847.00;;;16.74;43.75
33506;BME280;19843;51.040;13.782;2023-06-04T06:49:28;100840.50;;;17.35;42.63
33506;BME280;19843;51.040;13.782;2023-06-04T06:51:56;100832.91;;;17.39;40.01
33506;BME280;19843;51.040;13.782;2023-06-04T06:54:23;100835.78;;;17.66;40.69
33506;BME280;19843;51.040;13.782;2023-06-04T06:56:51;100852.63;;;16.55;41.06
33506;BME280;19843;51.040;13.782;2023-06-04T06:59:18;100845.06;;;16.04;41.96
33506;BME280;19843;51.040;13.782;2023-06-04T07:01:46;100840.31;;;16.44;40.98
33506;BME280;19843;51.040;13.782;2023-06-04T07:04:14;100839.63;;;17.31;39.64
33506;BME280;19843;51.040;13.782;2023-06-04T07:06:43;100836.38;;;17.29;40.75
33506;BME280;19843;51.040;13.782;2023-06-04T07:09:11;100833.53;;;17.06;40.45
33506;BME280;19843;51.040;13.782;2023-06-04T07:11:38;100834.72;;;17.05;40.79
33506;BME280;19843;51.040;13.782;2023-06-04T07:14:06;100835.47;;;17.02;40.53
33506;BME280;19843;51.040;13.782;2023-06-04T07:16:33;100835.56;;;17.29;40.26
33506;BME280;19843;51.040;13.782;2023-06-04T07:19:01;100843.38;;;18.41;39.61
33506;BME280;19843;51.040;13.782;2023-06-04T07:21:29;100834.59;;;18.50;38.38
33506;BME280;19843;51.040;13.782;2023-06-04T07:23:58;100835.38;;;19.14;38.63
33506;BME280;19843;51.040;13.782;2023-06-04T07:26:25;100827.25;;;17.62;41.64
33506;BME280;19843;51.040;13.782;2023-06-04T07:29:00;100828.00;;;17.59;42.91
33506;BME280;19843;51.040;13.782;2023-06-04T07:31:27;100829.97;;;18.05;41.59
33506;BME280;19843;51.040;13.782;2023-06-04T07:33:55;100833.88;;;18.57;40.15
33506;BME280;19843;51.040;13.782;2023-06-04T07:36:22;100828.28;;;18.94;40.18
33506;BME280;19843;51.040;13.782;2023-06-04T07:38:50;100825.38;;;19.68;38.90
33506;BME280;19843;51.040;13.782;2023-06-04T07:41:19;100832.81;;;19.02;39.44
33506;BME280;19843;51.040;13.782;2023-06-04T07:43:46;100835.34;;;17.64;40.84
33506;BME280;19843;51.040;13.782;2023-06-04T07:46:14;100834.47;;;17.60;41.03
33506;BME280;19843;51.040;13.782;2023-06-04T07:48:45;100828.97;;;18.20;39.20
33506;BME280;19843;51.040;13.782;2023-06-04T07:51:13;100823.34;;;19.25;38.77
33506;BME280;19843;51.040;13.782;2023-06-04T07:53:41;100820.72;;;19.98;37.67
33506;BME280;19843;51.040;13.782;2023-06-04T07:56:08;100820.78;;;19.12;39.30
33506;BME280;19843;51.040;13.782;2023-06-04T07:58:37;100819.94;;;20.01;38.56
33506;BME280;19843;51.040;13.782;2023-06-04T08:01:05;100823.13;;;20.68;37.96
33506;BME280;19843;51.040;13.782;2023-06-04T08:03:33;100808.31;;;19.61;38.58
33506;BME280;19843;51.040;13.782;2023-06-04T08:06:01;100811.47;;;19.12;38.94
33506;BME280;19843;51.040;13.782;2023-06-04T08:08:30;100822.72;;;19.45;38.35
33506;BME280;19843;51.040;13.782;2023-06-04T08:11:00;100817.53;;;19.55;38.57
33506;BME280;19843;51.040;13.782;2023-06-04T08:13:27;100806.91;;;19.92;36.47
33506;BME280;19843;51.040;13.782;2023-06-04T08:15:56;100802.13;;;20.91;36.14
33506;BME280;19843;51.040;13.782;2023-06-04T08:18:24;100807.50;;;20.27;37.50
33506;BME280;19843;51.040;13.782;2023-06-04T08:20:51;100807.72;;;20.69;36.14
33506;BME280;19843;51.040;13.782;2023-06-04T08:23:19;100805.56;;;20.38;35.65
33506;BME280;19843;51.040;13.782;2023-06-04T08:25:46;100804.56;;;20.96;36.22
33506;BME280;19843;51.040;13.782;2023-06-04T08:28:14;100805.56;;;20.38;35.59
33506;BME280;19843;51.040;13.782;2023-06-04T08:30:42;100799.34;;;21.23;34.66
33506;BME280;19843;51.040;13.782;2023-06-04T08:33:11;100796.13;;;21.60;34.60
33506;BME280;19843;51.040;13.782;2023-06-04T08:35:39;100804.66;;;21.39;35.06
33506;BME280;19843;51.040;13.782;2023-06-04T08:38:06;100792.41;;;21.92;34.88
33506;BME280;19843;51.040;13.782;2023-06-04T08:40:34;100796.47;;;22.02;33.50
33506;BME280;19843;51.040;13.782;2023-06-04T08:43:02;100796.47;;;21.09;33.00
33506;BME280;19843;51.040;13.782;2023-06-04T08:45:32;100796.94;;;21.43;34.44
33506;BME280;19843;51.040;13.782;2023-06-04T08:48:00;100799.66;;;20.79;34.99
33506;BME280;19843;51.040;13.782;2023-06-04T08:50:29;100797.19;;;20.66;35.85
33506;BME280;19843;51.040;13.782;2023-06-04T08:52:58;100792.03;;;21.18;34.80
33506;BME280;19843;51.040;13.782;2023-06-04T08:55:26;100789.97;;;22.12;32.39
33506;BME280;19843;51.040;13.782;2023-06-04T08:57:54;100781.44;;;22.01;30.57
33506;BME280;19843;51.040;13.782;2023-06-04T09:00:21;100787.91;;;22.27;30.93
33506;BME280;19843;51.040;13.782;2023-06-04T09:02:50;100791.13;;;22.32;29.62
33506;BME280;19843;51.040;13.782;2023-06-04T09:05:20;100783.84;;;22.28;29.27
33506;BME280;19843;51.040;13.782;2023-06-04T09:07:52;100785.13;;;21.94;29.97
33506;BME280;19843;51.040;13.782;2023-06-04T09:10:22;100785.94;;;22.97;30.18
33506;BME280;19843;51.040;13.782;2023-06-04T09:12:51;100780.81;;;23.78;27.42
33506;BME280;19843;51.040;13.782;2023-06-04T09:15:19;100777.97;;;23.78;26.85
33506;BME280;19843;51.040;13.782;2023-06-04T09:17:46;100793.72;;;22.89;27.24
33506;BME280;19843;51.040;13.782;2023-06-04T09:20:20;100791.56;;;22.23;26.59
33506;BME280;19843;51.040;13.782;2023-06-04T09:22:49;100795.53;;;22.47;28.01
33506;BME280;19843;51.040;13.782;2023-06-04T09:25:20;100788.91;;;23.38;26.62
33506;BME280;19843;51.040;13.782;2023-06-04T09:27:49;100785.31;;;24.17;26.80
33506;BME280;19843;51.040;13.782;2023-06-04T09:30:17;100788.34;;;23.54;26.39
33506;BME280;19843;51.040;13.782;2023-06-04T09:32:45;100795.47;;;23.80;26.56
33506;BME280;19843;51.040;13.782;2023-06-04T09:35:14;100791.84;;;24.51;25.86
33506;BME280;19843;51.040;13.782;2023-06-04T09:37:42;100799.28;;;24.08;26.51
33506;BME280;19843;51.040;13.782;2023-06-04T09:40:12;100798.25;;;23.87;26.45
33506;BME280;19843;51.040;13.782;2023-06-04T09:42:43;100782.22;;;24.38;25.63
33506;BME280;19843;51.040;13.782;2023-06-04T09:45:11;100788.28;;;25.01;25.38
33506;BME280;19843;51.040;13.782;2023-06-04T09:47:40;100777.59;;;25.09;24.25
33506;BME280;19843;51.040;13.782;2023-06-04T09:50:09;100777.50;;;25.40;24.08
33506;BME280;19843;51.040;13.782;2023-06-04T09:52:37;100772.72;;;24.79;23.65
33506;BME280;19843;51.040;13.782;2023-06-04T09:55:17;100773.84;;;24.85;25.10
33506;BME280;19843;51.040;13.782;2023-06-04T09:57:50;100777.41;;;25.47;24.74
33506;BME280;19843;51.040;13.782;2023-06-04T10:00:19;100766.16;;;25.60;23.44
33506;BME280;19843;51.040;13.782;2023-06-04T10:02:49;100772.84;;;24.99;25.96
33506;BME280;19843;51.040;13.782;2023-06-04T10:05:18;100775.50;;;25.64;24.84
33506;BME280;19843;51.040;13.782;2023-06-04T10:07:50;100775.94;;;24.16;25.26
33506;BME280;19843;51.040;13.782;2023-06-04T10:10:21;100778.22;;;25.20;24.60
33506;BME280;19843;51.040;13.782;2023-06-04T10:12:54;100783.84;;;24.01;25.44
33506;BME280;19843;51.040;13.782;2023-06-04T10:15:24;100778.31;;;22.80;27.16
33506;BME280;19843;51.040;13.782;2023-06-04T10:17:52;100774.84;;;23.13;26.50
33506;BME280;19843;51.040;13.782;2023-06-04T10:20:21;100781.81;;;22.28;27.36
33506;BME280;19843;51.040;13.782;2023-06-04T10:22:50;100777.56;;;23.31;27.25
33506;BME280;19843;51.040;13.782;2023-06-04T10:25:19;100773.38;;;22.87;26.22
33506;BME280;19843;51.040;13.782;2023-06-04T10:27:48;100769.38;;;22.74;26.49
33506;BME280;19843;51.040;13.782;2023-06-04T10:30:18;100777.16;;;23.33;26.78
33506;BME280;19843;51.040;13.782;2023-06-04T10:32:45;100770.31;;;22.57;26.74
33506;BME280;19843;51.040;13.782;2023-06-04T10:35:14;100769.41;;;23.33;26.87
33506;BME280;19843;51.040;13.782;2023-06-04T10:37:42;100771.19;;;23.61;26.40
33506;BME280;19843;51.040;13.782;2023-06-04T10:40:10;100765.00;;;23.73;25.30
33506;BME280;19843;51.040;13.782;2023-06-04T10:42:42;100770.19;;;24.54;25.55
33506;BME280;19843;51.040;13.782;2023-06-04T10:45:10;100775.47;;;23.35;26.53
33506;BME280;19843;51.040;13.782;2023-06-04T10:47:38;100773.59;;;23.70;26.56
33506;BME280;19843;51.040;13.782;2023-06-04T10:50:09;100764.09;;;23.84;25.23
33506;BME280;19843;51.040;13.782;2023-06-04T10:52:38;100771.78;;;22.90;25.94
33506;BME280;19843;51.040;13.782;2023-06-04T10:55:07;100775.03;;;23.89;25.97
33506;BME280;19843;51.040;13.782;2023-06-04T10:57:35;100768.84;;;22.97;28.46
33506;BME280;19843;51.040;13.782;2023-06-04T11:00:06;100767.56;;;23.12;27.55
33506;BME280;19843;51.040;13.782;2023-06-04T11:02:38;100756.56;;;24.35;26.80
33506;BME280;19843;51.040;13.782;2023-06-04T11:05:16;100758.69;;;25.19;25.35
33506;BME280;19843;51.040;13.782;2023-06-04T11:07:46;100767.09;;;23.69;28.10
33506;BME280;19843;51.040;13.782;2023-06-04T11:10:14;100759.59;;;23.83;26.48
33506;BME280;19843;51.040;13.782;2023-06-04T11:12:43;100745.91;;;24.42;26.70
33506;BME280;19843;51.040;13.782;2023-06-04T11:15:12;100767.72;;;22.84;27.19
33506;BME280;19843;51.040;13.782;2023-06-04T11:17:58;100765.00;;;23.21;27.41
33506;BME280;19843;51.040;13.782;2023-06-04T11:20:25;100745.69;;;23.47;28.43
33506;BME280;19843;51.040;13.782;2023-06-04T11:22:53;100755.69;;;24.07;28.70
33506;BME280;19843;51.040;13.782;2023-06-04T11:25:23;100754.22;;;23.92;26.66
33506;BME280;19843;51.040;13.782;2023-06-04T11:27:52;100762.41;;;24.58;27.24
33506;BME280;19843;51.040;13.782;2023-06-04T11:30:23;100757.84;;;24.30;27.50
33506;BME280;19843;51.040;13.782;2023-06-04T11:32:59;100750.63;;;24.56;26.17
33506;BME280;19843;51.040;13.782;2023-06-04T11:35:27;100752.22;;;25.15;26.76
33506;BME280;19843;51.040;13.782;2023-06-04T11:37:55;100744.22;;;24.45;26.58
33506;BME280;19843;51.040;13.782;2023-06-04T11:40:24;100747.00;;;24.52;27.05
33506;BME280;19843;51.040;13.782;2023-06-04T11:42:53;100742.47;;;25.12;26.61
33506;BME280;19843;51.040;13.782;2023-06-04T11:45:22;100741.16;;;24.90;26.80
33506;BME280;19843;51.040;13.782;2023-06-04T11:47:54;100741.16;;;24.90;26.90
33506;BME280;19843;51.040;13.782;2023-06-04T11:50:23;100747.41;;;24.16;27.22
33506;BME280;19843;51.040;13.782;2023-06-04T11:52:53;100750.03;;;24.68;27.29
33506;BME280;19843;51.040;13.782;2023-06-04T11:55:21;100743.53;;;23.58;27.90
33506;BME280;19843;51.040;13.782;2023-06-04T11:57:50;100758.25;;;23.53;27.81
33506;BME280;19843;51.040;13.782;2023-06-04T12:00:18;100749.13;;;23.72;27.52
33506;BME280;19843;51.040;13.782;2023-06-04T12:02:52;100747.97;;;23.63;27.59
33506;BME280;19843;51.040;13.782;2023-06-04T12:05:23;100762.44;;;23.41;27.58
33506;BME280;19843;51.040;13.782;2023-06-04T12:07:51;100748.88;;;23.52;26.92
33506;BME280;19843;51.040;13.782;2023-06-04T12:10:19;100760.50;;;23.28;26.58
33506;BME280;19843;51.040;13.782;2023-06-04T12:12:53;100752.78;;;23.24;25.73
33506;BME280;19843;51.040;13.782;2023-06-04T12:15:21;100750.66;;;24.18;26.28
33506;BME280;19843;51.040;13.782;2023-06-04T12:17:51;100742.69;;;24.40;26.49
33506;BME280;19843;51.040;13.782;2023-06-04T12:20:19;100740.81;;;23.44;26.33
33506;BME280;19843;51.040;13.782;2023-06-04T12:22:58;100740.44;;;23.87;25.93
33506;BME280;19843;51.040;13.782;2023-06-04T12:25:27;100747.44;;;24.77;26.22
33506;BME280;19843;51.040;13.782;2023-06-04T12:27:55;100739.50;;;24.31;27.11
33506;BME280;19843;51.040;13.782;2023-06-04T12:30:23;100746.75;;;23.64;26.71
33506;BME280;19843;51.040;13.782;2023-06-04T12:32:52;100744.78;;;24.33;27.88
33506;BME280;19843;51.040;13.782;2023-06-04T12:35:20;100744.34;;;24.00;26.43
33506;BME280;19843;51.040;13.782;2023-06-04T12:37:48;100752.41;;;23.22;27.29
33506;BME280;19843;51.040;13.782;2023-06-04T12:40:16;100734.81;;;23.35;26.86
33506;BME280;19843;51.040;13.782;2023-06-04T12:42:43;100736.75;;;23.45;26.91
33506;BME280;19843;51.040;13.782;2023-06-04T12:45:12;100745.66;;;23.50;26.49
33506;BME280;19843;51.040;13.782;2023-06-04T12:47:40;100744.25;;;23.24;27.48
33506;BME280;19843;51.040;13.782;2023-06-04T12:50:10;100726.66;;;23.78;28.16
33506;BME280;19843;51.040;13.782;2023-06-04T12:52:38;100732.75;;;24.18;26.77
33506;BME280;19843;51.040;13.782;2023-06-04T12:55:09;100728.63;;;24.22;26.40